createdAt,value
2022-10-28T00:01:24.493Z,11.88
2022-10-28T00:03:56.173Z,12.05
2022-10-28T00:06:28.375Z,13.05
2022-10-28T00:08:56.151Z,9.83
2022-10-28T00:11:28.335Z,10.40
2022-10-28T00:13:58.133Z,7.72
2022-10-28T00:16:29.961Z,8.50
2022-10-28T00:19:02.652Z,9.43
2022-10-28T00:21:34.606Z,6.55
2022-10-28T00:24:02.584Z,6.15
2022-10-28T00:26:32.102Z,7.67
2022-10-28T00:29:04.071Z,8.60
2022-10-28T00:31:33.074Z,7.72
2022-10-28T00:34:03.811Z,7.28
2022-10-28T00:36:35.592Z,10.03
2022-10-28T00:39:11.180Z,8.50
2022-10-28T00:44:59.052Z,6.37
2022-10-28T00:47:41.037Z,7.25
2022-10-28T00:50:20.246Z,6.47
2022-10-28T00:52:52.281Z,8.65
2022-10-28T00:55:21.960Z,5.42
2022-10-28T00:57:50.815Z,6.58
2022-10-28T01:00:18.953Z,11.70
2022-10-28T01:02:49.239Z,10.75
2022-10-28T01:05:24.883Z,9.58
2022-10-28T01:10:27.163Z,8.95
2022-10-28T01:13:34.743Z,11.93
2022-10-28T01:16:16.474Z,10.13
2022-10-28T01:19:18.274Z,10.93
2022-10-28T01:22:13.984Z,10.03
2022-10-28T01:24:52.932Z,7.15
2022-10-28T01:27:57.268Z,6.75
2022-10-28T01:30:28.869Z,9.13
2022-10-28T01:33:08.065Z,7.10
2022-10-28T01:35:59.217Z,6.80
2022-10-28T01:38:53.318Z,10.35
2022-10-28T01:41:34.400Z,7.17
2022-10-28T01:44:31.301Z,6.83
2022-10-28T01:47:07.536Z,8.00
2022-10-28T01:49:44.588Z,10.55
2022-10-28T01:52:16.178Z,8.65
2022-10-28T01:54:48.145Z,8.33
2022-10-28T01:57:18.457Z,5.95
2022-10-28T01:59:48.841Z,8.83
2022-10-28T02:02:17.691Z,8.43
2022-10-28T02:04:45.602Z,10.53
2022-10-28T02:07:13.831Z,6.95
2022-10-28T02:10:09.521Z,8.95
2022-10-28T02:12:38.362Z,7.58
2022-10-28T02:15:28.302Z,11.80
2022-10-28T02:18:10.992Z,10.63
2022-10-28T02:20:59.015Z,7.75
2022-10-28T02:23:53.019Z,10.40
2022-10-28T02:26:37.492Z,8.48
2022-10-28T02:29:19.327Z,9.13
2022-10-28T02:31:57.276Z,13.30
2022-10-28T02:34:30.089Z,11.90
2022-10-28T02:37:01.735Z,10.32
2022-10-28T02:39:37.517Z,13.95
2022-10-28T02:44:39.297Z,10.35
2022-10-28T02:47:12.541Z,11.08
2022-10-28T02:49:44.097Z,17.42
2022-10-28T02:52:13.294Z,12.07
2022-10-28T02:54:55.655Z,8.23
2022-10-28T02:57:28.072Z,7.08
2022-10-28T03:00:03.960Z,5.92
2022-10-28T03:02:32.464Z,4.90
2022-10-28T03:05:00.212Z,6.55
2022-10-28T03:07:27.969Z,7.28
2022-10-28T03:09:55.697Z,8.28
2022-10-28T03:12:23.349Z,8.70
2022-10-28T03:14:50.665Z,6.75
2022-10-28T03:17:18.318Z,7.20
2022-10-28T03:19:45.943Z,7.45
2022-10-28T03:22:13.738Z,8.10
2022-10-28T03:24:41.251Z,9.88
2022-10-28T03:27:08.905Z,9.28
2022-10-28T03:29:36.756Z,10.28
2022-10-28T03:32:04.975Z,6.95
2022-10-28T03:34:32.611Z,6.87
2022-10-28T03:37:00.051Z,7.90
2022-10-28T03:39:27.594Z,7.00
2022-10-28T03:41:55.374Z,7.47
2022-10-28T03:44:23.172Z,7.47
2022-10-28T03:46:50.963Z,7.00
2022-10-28T03:49:18.789Z,9.33
2022-10-28T03:51:46.841Z,7.95
2022-10-28T03:54:14.558Z,6.92
2022-10-28T03:56:42.298Z,6.33
2022-10-28T03:59:10.288Z,14.00
2022-10-28T04:01:38.237Z,26.02
2022-10-28T04:04:06.467Z,46.08
2022-10-28T04:06:34.230Z,49.23
2022-10-28T04:09:02.163Z,42.35
2022-10-28T04:11:29.628Z,38.85
2022-10-28T04:13:57.341Z,32.48
2022-10-28T04:16:24.747Z,29.52
2022-10-28T04:18:52.381Z,23.10
2022-10-28T04:21:20.173Z,20.27
2022-10-28T04:23:48.018Z,19.50
2022-10-28T04:26:15.611Z,19.40
2022-10-28T04:28:43.179Z,17.57
2022-10-28T04:31:11.709Z,14.60
2022-10-28T04:33:39.545Z,12.05
2022-10-28T04:36:07.951Z,12.73
2022-10-28T04:38:35.543Z,12.40
2022-10-28T04:41:03.572Z,13.03
2022-10-28T04:43:31.273Z,10.53
2022-10-28T04:46:00.845Z,12.90
2022-10-28T04:48:28.586Z,14.50
2022-10-28T04:50:57.409Z,14.38
2022-10-28T04:53:25.290Z,14.30
2022-10-28T04:55:58.452Z,12.88
2022-10-28T04:58:27.056Z,17.92
2022-10-28T05:00:54.530Z,18.17
2022-10-28T05:03:22.319Z,18.25
2022-10-28T05:05:50.211Z,18.20
2022-10-28T05:08:18.328Z,17.55
2022-10-28T05:10:48.146Z,17.80
2022-10-28T05:13:15.766Z,21.33
2022-10-28T05:15:43.476Z,24.65
2022-10-28T05:18:10.988Z,26.42
2022-10-28T05:20:38.709Z,34.45
2022-10-28T05:23:06.996Z,42.10
2022-10-28T05:25:34.617Z,34.20
2022-10-28T05:28:02.738Z,32.13
2022-10-28T05:30:30.384Z,21.62
2022-10-28T05:33:04.243Z,22.25
2022-10-28T05:35:32.087Z,14.85
2022-10-28T05:37:59.856Z,12.65
2022-10-28T05:40:27.524Z,12.55
2022-10-28T05:42:55.258Z,14.75
2022-10-28T05:45:23.488Z,14.20
2022-10-28T05:47:51.240Z,12.55
2022-10-28T05:50:25.950Z,6.00
2022-10-28T05:52:56.450Z,10.70
2022-10-28T05:55:27.859Z,10.38
2022-10-28T05:57:57.271Z,6.40
2022-10-28T06:00:26.376Z,7.12
2022-10-28T06:03:08.295Z,13.72
2022-10-28T06:05:39.803Z,13.15
2022-10-28T06:08:07.567Z,7.20
2022-10-28T06:10:35.235Z,8.78
2022-10-28T06:13:01.657Z,8.15
2022-10-28T06:15:29.323Z,8.25
2022-10-28T06:17:56.842Z,6.55
2022-10-28T06:20:24.551Z,7.08
2022-10-28T06:22:55.178Z,6.78
2022-10-28T06:25:25.453Z,11.08
2022-10-28T06:27:58.161Z,8.70
2022-10-28T06:30:26.860Z,6.15
2022-10-28T06:32:56.058Z,7.37
2022-10-28T06:35:23.995Z,6.70
2022-10-28T06:37:57.049Z,5.90
2022-10-28T06:40:25.562Z,8.53
2022-10-28T06:43:05.038Z,5.80
2022-10-28T06:45:33.444Z,6.45
2022-10-28T06:48:05.592Z,9.78
2022-10-28T06:50:35.753Z,8.18
2022-10-28T06:53:12.064Z,6.85
2022-10-28T06:55:40.233Z,9.63
2022-10-28T06:58:08.062Z,7.12
2022-10-28T07:00:37.266Z,5.78
2022-10-28T07:03:05.255Z,8.15
2022-10-28T07:05:32.782Z,5.00
2022-10-28T07:08:00.963Z,8.43
2022-10-28T07:10:33.136Z,5.78
2022-10-28T07:13:00.808Z,11.22
2022-10-28T07:15:30.287Z,6.62
2022-10-28T07:17:59.698Z,4.78
2022-10-28T07:20:30.371Z,9.23
2022-10-28T07:23:02.807Z,5.37
2022-10-28T07:25:34.990Z,8.50
2022-10-28T07:28:05.131Z,4.12
2022-10-28T07:30:33.721Z,7.67
2022-10-28T07:33:01.132Z,10.82
2022-10-28T07:35:31.507Z,7.33
2022-10-28T07:37:59.578Z,7.35
2022-10-28T07:40:27.721Z,5.55
2022-10-28T07:42:58.908Z,20.17
2022-10-28T07:45:27.089Z,7.95
2022-10-28T07:47:54.409Z,5.75
2022-10-28T07:50:22.149Z,9.23
2022-10-28T07:52:50.208Z,5.95
2022-10-28T07:55:20.463Z,16.62
2022-10-28T07:57:50.497Z,7.35
2022-10-28T08:00:19.431Z,18.98
2022-10-28T08:02:48.940Z,7.65
2022-10-28T08:05:17.455Z,8.58
2022-10-28T08:07:46.487Z,12.55
2022-10-28T08:10:14.229Z,10.08
2022-10-28T08:12:41.653Z,8.63
2022-10-28T08:15:10.067Z,10.68
2022-10-28T08:17:37.648Z,6.12
2022-10-28T08:20:06.064Z,7.08
2022-10-28T08:22:33.734Z,5.45
2022-10-28T08:25:01.623Z,6.53
2022-10-28T08:27:29.321Z,8.00
2022-10-28T08:29:56.724Z,12.23
2022-10-28T08:32:25.309Z,5.12
2022-10-28T08:34:54.530Z,6.58
2022-10-28T08:37:23.189Z,7.70
2022-10-28T08:39:52.141Z,5.65
2022-10-28T08:42:46.068Z,8.78
2022-10-28T08:45:37.336Z,7.17
2022-10-28T08:48:34.491Z,6.10
2022-10-28T08:51:13.308Z,7.65
2022-10-28T08:53:54.641Z,7.65
2022-10-28T08:56:41.687Z,13.45
2022-10-28T08:59:13.734Z,9.65
2022-10-28T09:01:50.000Z,12.63
2022-10-28T09:04:43.721Z,8.50
2022-10-28T09:07:21.353Z,10.38
2022-10-28T09:09:51.280Z,10.25
2022-10-28T09:12:43.074Z,7.33
2022-10-28T09:15:37.030Z,7.47
2022-10-28T09:18:21.845Z,7.08
2022-10-28T09:20:55.628Z,5.53
2022-10-28T09:23:48.979Z,9.70
2022-10-28T09:26:21.140Z,13.03
2022-10-28T09:29:15.209Z,10.43
2022-10-28T09:31:49.871Z,8.23
2022-10-28T09:34:31.725Z,10.00
2022-10-28T09:37:33.422Z,8.15
2022-10-28T09:40:09.131Z,10.43
2022-10-28T09:42:43.125Z,7.47
2022-10-28T09:45:27.305Z,11.93
2022-10-28T09:48:12.183Z,17.05
2022-10-28T09:50:40.409Z,8.25
2022-10-28T09:53:36.039Z,7.10
2022-10-28T09:56:05.734Z,8.23
2022-10-28T09:58:39.116Z,8.15
2022-10-28T10:01:06.796Z,9.53
2022-10-28T10:03:36.476Z,6.70
2022-10-28T10:06:15.598Z,6.45
2022-10-28T10:08:44.651Z,21.23
2022-10-28T10:11:20.056Z,8.80
2022-10-28T10:13:48.296Z,6.25
2022-10-28T10:16:39.544Z,7.90
2022-10-28T10:19:10.707Z,7.22
2022-10-28T10:21:51.471Z,8.50
2022-10-28T10:24:35.324Z,8.95
2022-10-28T10:27:11.390Z,12.10
2022-10-28T10:29:45.828Z,7.67
2022-10-28T10:32:21.598Z,9.15
2022-10-28T10:35:06.247Z,10.28
2022-10-28T10:37:36.272Z,7.08
2022-10-28T10:40:32.918Z,5.45
2022-10-28T10:43:27.167Z,7.53
2022-10-28T10:46:17.293Z,6.90
2022-10-28T10:48:45.259Z,4.87
2022-10-28T10:51:25.832Z,5.62
2022-10-28T10:53:59.392Z,8.13
2022-10-28T10:56:30.565Z,9.53
2022-10-28T10:59:02.787Z,6.37
2022-10-28T11:01:40.660Z,4.55
2022-10-28T11:04:15.691Z,8.10
2022-10-28T11:06:47.980Z,11.43
2022-10-28T11:09:32.792Z,9.93
2022-10-28T11:12:00.899Z,4.83
2022-10-28T11:14:32.462Z,6.12
2022-10-28T11:17:02.341Z,5.50
2022-10-28T11:19:37.803Z,9.68
2022-10-28T11:22:33.479Z,7.35
2022-10-28T11:25:18.916Z,12.05
2022-10-28T11:28:11.781Z,14.38
2022-10-28T11:31:24.003Z,7.83
2022-10-28T11:34:27.038Z,8.15
2022-10-28T11:37:30.580Z,6.47
2022-10-28T11:40:15.661Z,12.05
2022-10-28T11:43:23.125Z,6.12
2022-10-28T11:46:11.070Z,7.03
2022-10-28T11:48:59.237Z,6.12
2022-10-28T11:51:56.649Z,9.15
2022-10-28T11:54:55.071Z,13.98
2022-10-28T11:57:46.110Z,6.25
2022-10-28T12:01:09.120Z,7.75
2022-10-28T12:03:57.995Z,8.25
2022-10-28T12:06:48.714Z,5.35
2022-10-28T12:09:41.762Z,5.28
2022-10-28T12:12:15.599Z,5.83
2022-10-28T12:15:03.419Z,8.78
2022-10-28T12:17:51.755Z,7.17
2022-10-28T12:20:26.993Z,6.55
2022-10-28T12:23:00.001Z,6.15
2022-10-28T12:25:32.559Z,6.97
2022-10-28T12:28:07.623Z,6.92
2022-10-28T12:30:40.003Z,34.88
2022-10-28T12:33:18.765Z,15.72
2022-10-28T12:36:08.343Z,8.03
2022-10-28T12:38:47.131Z,14.75
2022-10-28T12:41:42.805Z,7.42
2022-10-28T12:44:18.536Z,11.83
2022-10-28T12:47:18.143Z,10.55
2022-10-28T12:49:56.590Z,7.70
2022-10-28T12:52:49.486Z,12.55
2022-10-28T12:55:37.373Z,9.93
2022-10-28T12:58:34.697Z,5.62
2022-10-28T13:01:15.981Z,7.25
2022-10-28T13:03:43.519Z,6.28
2022-10-28T13:06:34.293Z,9.15
2022-10-28T13:09:44.911Z,7.15
2022-10-28T13:12:38.449Z,8.68
2022-10-28T13:15:41.722Z,10.15
2022-10-28T13:18:47.846Z,8.93
2022-10-28T13:21:26.885Z,4.80
2022-10-28T13:24:14.481Z,6.05
2022-10-28T13:26:45.322Z,6.53
2022-10-28T13:29:29.596Z,9.00
2022-10-28T13:31:57.282Z,6.28
2022-10-28T13:34:33.090Z,9.50
2022-10-28T13:37:03.563Z,7.37
2022-10-28T13:39:44.184Z,8.30
2022-10-28T13:42:22.031Z,14.87
2022-10-28T13:45:00.623Z,8.53
2022-10-28T13:47:32.313Z,5.83
2022-10-28T13:50:11.954Z,7.00
2022-10-28T13:52:44.658Z,4.72
2022-10-28T13:55:26.393Z,7.87
2022-10-28T13:58:10.209Z,9.13
2022-10-28T14:00:38.154Z,9.98
2022-10-28T14:03:21.358Z,11.40
2022-10-28T14:05:53.248Z,13.20
2022-10-28T14:08:28.975Z,10.82
2022-10-28T14:11:07.263Z,20.02
2022-10-28T14:13:51.952Z,12.78
2022-10-28T14:16:28.664Z,7.83
2022-10-28T14:19:14.527Z,10.13
2022-10-28T14:22:02.660Z,12.10
2022-10-28T14:24:35.866Z,13.28
2022-10-28T14:27:12.077Z,7.87
2022-10-28T14:29:56.840Z,7.60
2022-10-28T14:32:51.334Z,7.00
2022-10-28T14:35:23.646Z,7.10
2022-10-28T14:38:05.494Z,22.27
2022-10-28T14:40:44.148Z,17.25
2022-10-28T14:43:34.477Z,15.28
2022-10-28T14:46:31.544Z,19.70
2022-10-28T14:49:02.866Z,37.23
2022-10-28T14:51:41.374Z,28.85
2022-10-28T14:54:16.056Z,40.90
2022-10-28T14:56:45.179Z,30.80
2022-10-28T14:59:37.926Z,27.75
2022-10-28T15:02:17.151Z,40.52
2022-10-28T15:04:50.358Z,40.63
2022-10-28T15:07:20.434Z,79.30
2022-10-28T15:09:51.382Z,81.55
2022-10-28T15:12:22.581Z,51.95
2022-10-28T15:14:53.391Z,73.35
2022-10-28T15:17:28.201Z,65.87
2022-10-28T15:19:59.245Z,68.87
2022-10-28T15:22:32.535Z,75.70
2022-10-28T15:25:08.167Z,83.30
2022-10-28T15:27:38.904Z,101.05
2022-10-28T15:30:19.819Z,94.45
2022-10-28T15:32:47.516Z,89.47
2022-10-28T15:35:32.570Z,89.97
2022-10-28T15:38:01.977Z,90.45
2022-10-28T15:40:32.566Z,83.95
2022-10-28T15:43:04.449Z,86.10
2022-10-28T15:45:39.730Z,67.37
2022-10-28T15:48:11.394Z,64.67
2022-10-28T15:50:39.489Z,67.87
2022-10-28T15:53:20.505Z,78.65
2022-10-28T15:56:07.151Z,103.15
2022-10-28T15:58:46.391Z,91.92
2022-10-28T16:01:39.168Z,77.05
2022-10-28T16:04:24.558Z,85.57
2022-10-28T16:06:57.644Z,79.20
2022-10-28T16:09:32.106Z,74.32
2022-10-28T16:12:04.573Z,66.57
2022-10-28T16:14:44.855Z,57.08
2022-10-28T16:17:23.355Z,50.55
2022-10-28T16:19:56.389Z,50.00
2022-10-28T16:22:26.845Z,45.12
2022-10-28T16:24:54.762Z,50.38
2022-10-28T16:27:26.182Z,45.30
2022-10-28T16:29:54.014Z,47.17
2022-10-28T16:32:35.420Z,38.92
2022-10-28T16:35:19.139Z,39.15
2022-10-28T16:37:50.730Z,40.25
2022-10-28T16:40:49.530Z,65.17
2022-10-28T16:42:47.454Z,75.75
2022-10-28T16:45:17.936Z,82.50
2022-10-28T16:47:45.916Z,72.62
2022-10-28T16:50:14.052Z,76.85
2022-10-28T16:52:41.497Z,96.85
2022-10-28T16:55:18.942Z,106.85
2022-10-28T16:57:46.456Z,68.10
2022-10-28T17:00:14.451Z,61.63
2022-10-28T17:02:42.787Z,61.50
2022-10-28T17:05:18.664Z,57.25
2022-10-28T17:07:46.367Z,54.55
2022-10-28T17:10:14.668Z,53.35
2022-10-28T17:12:42.358Z,52.85
2022-10-28T17:15:10.753Z,54.70
2022-10-28T17:17:38.333Z,51.45
2022-10-28T17:20:07.204Z,51.45
2022-10-28T17:22:35.165Z,52.08
2022-10-28T17:25:03.021Z,53.38
2022-10-28T17:27:30.623Z,57.25
2022-10-28T17:29:58.188Z,53.73
2022-10-28T17:32:27.822Z,53.10
2022-10-28T17:34:55.343Z,54.77
2022-10-28T17:37:26.470Z,63.33
2022-10-28T17:42:22.306Z,68.83
2022-10-28T17:44:49.965Z,68.60
2022-10-28T17:47:17.788Z,67.92
2022-10-28T17:49:45.391Z,62.38
2022-10-28T17:52:13.567Z,61.50
2022-10-28T17:54:41.102Z,50.58
2022-10-28T17:57:08.798Z,49.48
2022-10-28T17:59:36.607Z,48.02
2022-10-28T18:02:04.776Z,49.18
2022-10-28T18:04:32.710Z,46.25
2022-10-28T18:07:00.615Z,55.35
2022-10-28T18:09:30.405Z,51.73
2022-10-28T18:12:01.496Z,46.58
2022-10-28T18:14:30.163Z,49.18
2022-10-28T18:16:57.873Z,48.92
2022-10-28T18:19:25.501Z,57.43
2022-10-28T18:21:53.034Z,58.87
2022-10-28T18:24:23.412Z,58.87
2022-10-28T18:26:50.086Z,61.92
2022-10-28T18:29:18.135Z,58.17
2022-10-28T18:31:48.536Z,56.95
2022-10-28T18:34:16.825Z,50.48
2022-10-28T18:36:44.618Z,56.02
2022-10-28T18:39:12.220Z,50.90
2022-10-28T18:41:42.015Z,46.15
2022-10-28T18:44:13.734Z,49.05
2022-10-28T18:46:41.658Z,52.10
2022-10-28T18:49:09.610Z,53.75
2022-10-28T18:51:37.957Z,52.13
2022-10-28T18:54:06.288Z,51.48
2022-10-28T18:56:34.110Z,56.23
2022-10-28T18:59:04.221Z,52.60
2022-10-28T19:01:33.099Z,52.25
2022-10-28T19:04:03.663Z,58.13
2022-10-28T19:06:33.496Z,50.75
2022-10-28T19:09:04.416Z,48.70
2022-10-28T19:11:33.595Z,53.95
2022-10-28T19:14:04.807Z,47.55
2022-10-28T19:16:34.790Z,56.28
2022-10-28T19:19:04.850Z,53.78
2022-10-28T19:21:33.850Z,56.53
2022-10-28T19:24:01.878Z,52.62
2022-10-28T19:26:31.348Z,57.17
2022-10-28T19:29:01.704Z,57.83
2022-10-28T19:31:30.306Z,59.55
2022-10-28T19:33:57.776Z,56.10
2022-10-28T19:36:30.284Z,56.23
2022-10-28T19:38:58.813Z,57.45
2022-10-28T19:41:29.048Z,56.70
2022-10-28T19:44:02.409Z,62.50
2022-10-28T19:46:34.556Z,60.38
2022-10-28T19:49:05.249Z,64.32
2022-10-28T19:51:37.096Z,63.48
2022-10-28T19:54:09.442Z,63.00
2022-10-28T19:56:38.707Z,65.05
2022-10-28T19:59:06.818Z,63.40
2022-10-28T20:01:37.876Z,63.73
2022-10-28T20:04:07.546Z,56.95
2022-10-28T20:06:38.523Z,60.33
2022-10-28T20:09:06.783Z,53.52
2022-10-28T20:11:37.411Z,48.33
2022-10-28T20:14:10.760Z,47.10
2022-10-28T20:16:43.308Z,49.33
2022-10-28T20:19:11.659Z,48.15
2022-10-28T20:21:39.779Z,52.30
2022-10-28T20:24:08.201Z,54.93
2022-10-28T20:26:37.973Z,66.28
2022-10-28T20:29:09.403Z,46.63
2022-10-28T20:31:38.383Z,39.30
2022-10-28T20:34:07.565Z,39.33
2022-10-28T20:36:45.272Z,40.58
2022-10-28T20:39:16.338Z,43.48
2022-10-28T20:41:45.972Z,43.33
2022-10-28T20:44:13.971Z,45.20
2022-10-28T20:46:42.087Z,46.88
2022-10-28T20:49:09.985Z,47.65
2022-10-28T20:51:37.691Z,42.00
2022-10-28T20:54:06.201Z,43.80
2022-10-28T20:56:36.768Z,44.93
2022-10-28T20:59:05.168Z,43.68
2022-10-28T21:01:37.379Z,46.00
2022-10-28T21:04:08.962Z,40.20
2022-10-28T21:06:37.962Z,40.48
2022-10-28T21:09:06.088Z,42.70
2022-10-28T21:11:33.941Z,43.95
2022-10-28T21:14:04.708Z,46.73
2022-10-28T21:16:32.484Z,52.48
2022-10-28T21:19:00.410Z,57.60
2022-10-28T21:21:28.949Z,55.52
2022-10-28T21:23:58.286Z,49.05
2022-10-28T21:26:26.726Z,44.70
2022-10-28T21:28:55.813Z,44.88
2022-10-28T21:31:24.126Z,41.25
2022-10-28T21:33:52.516Z,40.65
2022-10-28T21:36:21.932Z,40.15
2022-10-28T21:38:55.296Z,38.90
2022-10-28T21:41:23.904Z,38.65
2022-10-28T21:43:53.401Z,37.17
2022-10-28T21:46:22.819Z,37.85
2022-10-28T21:48:52.446Z,34.98
2022-10-28T21:51:20.145Z,34.50
2022-10-28T21:53:47.918Z,34.83
2022-10-28T21:56:19.568Z,36.15
2022-10-28T21:58:49.969Z,33.20
2022-10-28T22:01:23.487Z,30.57
2022-10-28T22:03:54.128Z,32.35
2022-10-28T22:06:22.368Z,34.15
2022-10-28T22:08:55.125Z,31.52
2022-10-28T22:11:23.749Z,29.65
2022-10-28T22:14:00.672Z,29.85
2022-10-28T22:16:31.113Z,29.70
2022-10-28T22:19:01.519Z,35.73
2022-10-28T22:21:33.087Z,27.62
2022-10-28T22:24:00.928Z,28.23
2022-10-28T22:26:30.328Z,27.85
2022-10-28T22:28:58.061Z,31.33
2022-10-28T22:31:30.491Z,26.48
2022-10-28T22:33:58.678Z,25.75
2022-10-28T22:36:29.060Z,26.20
2022-10-28T22:38:56.763Z,27.55
2022-10-28T22:41:29.920Z,28.05
2022-10-28T22:44:01.813Z,25.88
2022-10-28T22:46:36.078Z,26.45
2022-10-28T22:49:04.048Z,27.87
2022-10-28T22:51:32.171Z,26.42
2022-10-28T22:53:59.889Z,26.07
2022-10-28T22:56:28.070Z,25.82
2022-10-28T22:59:01.230Z,31.17
2022-10-28T23:01:29.905Z,31.50
2022-10-28T23:03:57.854Z,27.60
2022-10-28T23:06:28.032Z,31.82
2022-10-28T23:08:55.669Z,29.63
2022-10-28T23:11:23.446Z,34.73
2022-10-28T23:13:53.328Z,31.57
2022-10-28T23:16:22.763Z,31.48
2022-10-28T23:18:52.341Z,25.00
2022-10-28T23:21:23.834Z,23.98
2022-10-28T23:23:59.705Z,23.65
2022-10-28T23:26:29.290Z,21.65
2022-10-28T23:28:59.111Z,21.77
2022-10-28T23:31:27.637Z,23.12
2022-10-28T23:33:55.692Z,23.83
2022-10-28T23:36:23.417Z,22.52
2022-10-28T23:38:52.008Z,26.60
2022-10-28T23:41:20.476Z,22.52
2022-10-28T23:43:48.998Z,22.58
2022-10-28T23:46:17.093Z,24.25
2022-10-28T23:48:44.637Z,23.22
2022-10-28T23:51:12.534Z,23.25
2022-10-28T23:53:39.924Z,20.10
2022-10-28T23:56:08.255Z,21.82
2022-10-28T23:58:35.932Z,19.50
